createdAt,value
2023-01-12T00:00:02.274Z,100569.94
2023-01-12T00:02:42.742Z,100578.50
2023-01-12T00:05:15.043Z,100575.50
2023-01-12T00:07:46.397Z,100578.84
2023-01-12T00:10:17.927Z,100577.91
2023-01-12T00:12:48.645Z,100581.56
2023-01-12T00:15:39.334Z,100583.94
2023-01-12T00:18:10.784Z,100587.56
2023-01-12T00:20:42.126Z,100586.53
2023-01-12T00:23:13.847Z,100592.69
2023-01-12T00:25:45.156Z,100589.63
2023-01-12T00:28:16.108Z,100597.25
2023-01-12T00:30:47.398Z,100589.44
2023-01-12T00:33:18.525Z,100586.56
2023-01-12T00:35:49.485Z,100578.72
2023-01-12T00:38:20.399Z,100609.72
2023-01-12T00:40:51.218Z,100606.22
2023-01-12T00:43:40.287Z,100602.31
2023-01-12T00:46:11.277Z,100607.69
2023-01-12T00:48:42.304Z,100599.38
2023-01-12T00:51:13.942Z,100611.97
2023-01-12T00:53:44.335Z,100608.94
2023-01-12T00:56:15.237Z,100606.69
2023-01-12T00:58:50.383Z,100605.47
2023-01-12T01:01:22.058Z,100607.13
2023-01-12T01:03:53.148Z,100607.00
2023-01-12T01:06:24.491Z,100603.47
2023-01-12T01:08:55.906Z,100609.06
2023-01-12T01:11:26.682Z,100617.09
2023-01-12T01:13:57.726Z,100620.53
2023-01-12T01:16:29.182Z,100616.78
2023-01-12T01:19:01.134Z,100618.03
2023-01-12T01:21:32.197Z,100625.97
2023-01-12T01:24:03.494Z,100621.41
2023-01-12T01:26:34.963Z,100618.06
2023-01-12T01:29:06.160Z,100621.88
2023-01-12T01:31:37.704Z,100627.28
2023-01-12T01:34:09.280Z,100628.84
2023-01-12T01:36:40.522Z,100620.25
2023-01-12T01:39:11.497Z,100624.88
2023-01-12T01:41:43.590Z,100631.72
2023-01-12T01:44:33.188Z,100632.81
2023-01-12T01:47:16.793Z,100631.16
2023-01-12T01:49:53.081Z,100640.69
2023-01-12T01:52:37.016Z,100635.63
2023-01-12T01:55:21.695Z,100641.91
2023-01-12T01:58:12.730Z,100642.00
2023-01-12T02:00:45.079Z,100643.34
2023-01-12T02:03:17.912Z,100655.19
2023-01-12T02:05:53.704Z,100648.41
2023-01-12T02:08:23.960Z,100649.97
2023-01-12T02:10:55.539Z,100644.16
2023-01-12T02:13:47.637Z,100649.19
2023-01-12T02:16:29.334Z,100655.19
2023-01-12T02:19:30.844Z,100648.19
2023-01-12T02:22:36.683Z,100656.47
2023-01-12T02:25:23.503Z,100657.19
2023-01-12T02:28:18.517Z,100643.72
2023-01-12T02:31:26.282Z,100654.56
2023-01-12T02:34:06.505Z,100650.50
2023-01-12T02:36:40.853Z,100658.50
2023-01-12T02:39:34.884Z,100650.75
2023-01-12T02:42:44.074Z,100650.41
2023-01-12T02:45:27.295Z,100656.91
2023-01-12T02:48:27.314Z,100651.63
2023-01-12T02:51:12.397Z,100659.75
2023-01-12T02:53:53.937Z,100658.91
2023-01-12T02:56:40.182Z,100660.84
2023-01-12T02:59:16.344Z,100650.59
2023-01-12T03:01:49.967Z,100650.72
2023-01-12T03:04:22.278Z,100658.41
2023-01-12T03:06:58.309Z,100661.16
2023-01-12T03:09:48.877Z,100656.97
2023-01-12T03:12:24.428Z,100659.09
2023-01-12T03:14:56.259Z,100664.69
2023-01-12T03:17:35.676Z,100668.53
2023-01-12T03:20:13.215Z,100667.03
2023-01-12T03:22:44.689Z,100666.63
2023-01-12T03:25:19.072Z,100671.47
2023-01-12T03:27:56.450Z,100664.19
2023-01-12T03:30:42.252Z,100669.50
2023-01-12T03:33:14.412Z,100676.47
2023-01-12T03:36:03.084Z,100682.47
2023-01-12T03:38:54.545Z,100677.13
2023-01-12T03:41:34.475Z,100666.31
2023-01-12T03:44:08.033Z,100673.25
2023-01-12T03:46:44.619Z,100683.47
2023-01-12T03:49:28.022Z,100683.16
2023-01-12T03:52:00.549Z,100680.69
2023-01-12T03:54:32.433Z,100675.28
2023-01-12T03:57:04.164Z,100677.78
2023-01-12T03:59:35.654Z,100674.34
2023-01-12T04:02:06.874Z,100685.53
2023-01-12T04:04:38.641Z,100688.31
2023-01-12T04:07:09.618Z,100693.91
2023-01-12T04:09:40.831Z,100692.38
2023-01-12T04:12:14.696Z,100702.63
2023-01-12T04:14:48.262Z,100705.69
2023-01-12T04:17:19.387Z,100702.88
2023-01-12T04:19:50.501Z,100717.38
2023-01-12T04:22:39.927Z,100714.41
2023-01-12T04:25:12.475Z,100710.16
2023-01-12T04:27:47.411Z,100701.25
2023-01-12T04:30:21.595Z,100726.38
2023-01-12T04:32:53.893Z,100708.81
2023-01-12T04:35:25.965Z,100719.88
2023-01-12T04:37:56.388Z,100722.78
2023-01-12T04:40:27.672Z,100719.75
2023-01-12T04:43:12.513Z,100727.47
2023-01-12T04:45:45.111Z,100729.88
2023-01-12T04:48:18.007Z,100721.59
2023-01-12T04:50:51.249Z,100730.00
2023-01-12T04:53:23.454Z,100728.66
2023-01-12T04:55:54.628Z,100722.19
2023-01-12T04:58:26.310Z,100735.28
2023-01-12T05:00:57.454Z,100740.53
2023-01-12T05:03:30.375Z,100730.91
2023-01-12T05:06:04.381Z,100736.88
2023-01-12T05:08:53.213Z,100742.16
2023-01-12T05:11:29.884Z,100745.19
2023-01-12T05:14:01.074Z,100743.78
2023-01-12T05:16:32.288Z,100744.28
2023-01-12T05:19:03.232Z,100756.75
2023-01-12T05:21:34.295Z,100749.13
2023-01-12T05:24:05.322Z,100752.28
2023-01-12T05:26:36.541Z,100750.19
2023-01-12T05:29:07.712Z,100742.31
2023-01-12T05:31:38.864Z,100756.66
2023-01-12T05:34:09.805Z,100749.13
2023-01-12T05:36:41.338Z,100764.88
2023-01-12T05:39:12.372Z,100759.59
2023-01-12T05:42:01.613Z,100769.56
2023-01-12T05:44:32.867Z,100773.38
2023-01-12T05:47:04.306Z,100776.69
2023-01-12T05:49:35.436Z,100777.59
2023-01-12T05:52:06.602Z,100785.47
2023-01-12T05:54:37.360Z,100791.97
2023-01-12T05:57:08.216Z,100799.75
2023-01-12T05:59:39.112Z,100799.06
2023-01-12T06:02:13.742Z,100802.91
2023-01-12T06:04:45.936Z,100815.75
2023-01-12T06:07:18.693Z,100809.28
2023-01-12T06:09:50.247Z,100812.44
2023-01-12T06:12:39.192Z,100812.13
2023-01-12T06:15:10.612Z,100817.81
2023-01-12T06:17:41.285Z,100826.91
2023-01-12T06:20:16.313Z,100824.03
2023-01-12T06:22:48.357Z,100832.81
2023-01-12T06:25:19.602Z,100835.16
2023-01-12T06:27:50.749Z,100838.41
2023-01-12T06:30:21.664Z,100835.78
2023-01-12T06:32:52.752Z,100842.75
2023-01-12T06:35:23.843Z,100848.81
2023-01-12T06:37:58.891Z,100854.88
2023-01-12T06:40:30.223Z,100863.22
2023-01-12T06:43:01.218Z,100862.09
2023-01-12T06:45:32.537Z,100878.13
2023-01-12T06:48:03.680Z,100884.59
2023-01-12T06:50:35.530Z,100888.41
2023-01-12T06:53:06.588Z,100899.59
2023-01-12T06:55:37.503Z,100903.50
2023-01-12T06:58:08.970Z,100900.84
2023-01-12T07:00:39.930Z,100912.09
2023-01-12T07:03:19.033Z,100910.06
2023-01-12T07:05:50.471Z,100918.84
2023-01-12T07:08:22.354Z,100918.19
2023-01-12T07:10:53.499Z,100927.38
2023-01-12T07:13:24.887Z,100937.06
2023-01-12T07:15:56.259Z,100936.78
2023-01-12T07:18:28.203Z,100941.63
2023-01-12T07:21:01.754Z,100940.94
2023-01-12T07:23:32.922Z,100950.41
2023-01-12T07:26:04.363Z,100955.09
2023-01-12T07:28:35.830Z,100958.66
2023-01-12T07:31:07.047Z,100969.31
2023-01-12T07:33:39.319Z,100972.06
2023-01-12T07:36:10.569Z,100981.63
2023-01-12T07:38:43.550Z,100984.63
2023-01-12T07:41:34.517Z,100985.22
2023-01-12T07:44:11.948Z,100999.91
2023-01-12T07:46:42.784Z,101003.72
2023-01-12T07:49:13.732Z,101005.13
2023-01-12T07:51:44.585Z,101013.09
2023-01-12T07:54:15.500Z,101006.50
2023-01-12T07:56:46.573Z,101019.34
2023-01-12T07:59:17.605Z,101022.38
2023-01-12T08:01:49.181Z,101025.34
2023-01-12T08:04:20.217Z,101026.22
2023-01-12T08:06:50.992Z,101036.31
2023-01-12T08:09:23.109Z,101032.50
2023-01-12T08:11:54.103Z,101042.91
2023-01-12T08:14:36.162Z,101048.91
2023-01-12T08:17:08.652Z,101043.56
2023-01-12T08:19:44.558Z,101049.00
2023-01-12T08:22:18.739Z,101062.59
2023-01-12T08:24:57.627Z,101061.00
2023-01-12T08:27:31.787Z,101062.38
2023-01-12T08:30:05.812Z,101071.94
2023-01-12T08:32:38.025Z,101090.13
2023-01-12T08:35:09.338Z,101086.88
2023-01-12T08:37:40.608Z,101086.66
2023-01-12T08:40:12.527Z,101093.22
2023-01-12T08:42:43.618Z,101092.94
2023-01-12T08:45:14.627Z,101100.28
2023-01-12T08:47:46.713Z,101103.03
2023-01-12T08:50:17.731Z,101108.47
2023-01-12T08:52:48.600Z,101114.50
2023-01-12T08:55:19.800Z,101120.47
2023-01-12T08:57:50.876Z,101127.53
2023-01-12T09:00:23.950Z,101129.47
2023-01-12T09:02:55.257Z,101135.19
2023-01-12T09:05:26.277Z,101145.81
2023-01-12T09:07:57.367Z,101140.69
2023-01-12T09:10:28.421Z,101141.75
2023-01-12T09:12:59.380Z,101154.56
2023-01-12T09:15:30.704Z,101157.53
2023-01-12T09:18:01.723Z,101165.41
2023-01-12T09:20:32.625Z,101169.22
2023-01-12T09:23:06.314Z,101175.22
2023-01-12T09:25:37.476Z,101178.22
2023-01-12T09:28:08.696Z,101177.66
2023-01-12T09:30:39.593Z,101182.84
2023-01-12T09:33:10.550Z,101187.19
2023-01-12T09:35:41.581Z,101185.28
2023-01-12T09:38:13.445Z,101185.03
2023-01-12T09:40:47.445Z,101191.53
2023-01-12T09:43:36.417Z,101198.34
2023-01-12T09:46:25.755Z,101201.06
2023-01-12T09:48:56.671Z,101208.69
2023-01-12T09:51:33.536Z,101210.03
2023-01-12T09:54:07.042Z,101207.06
2023-01-12T09:56:43.016Z,101220.94
2023-01-12T09:59:26.775Z,101221.22
2023-01-12T10:01:58.985Z,101228.56
2023-01-12T10:04:30.057Z,101233.19
2023-01-12T10:07:01.451Z,101228.81
2023-01-12T10:09:33.497Z,101237.25
2023-01-12T10:12:07.828Z,101240.56
2023-01-12T10:14:59.373Z,101250.06
2023-01-12T10:17:50.833Z,101246.78
2023-01-12T10:20:24.677Z,101252.78
2023-01-12T10:23:02.993Z,101257.66
2023-01-12T10:25:55.389Z,101254.94
2023-01-12T10:28:35.009Z,101266.41
2023-01-12T10:31:06.887Z,101257.66
2023-01-12T10:33:37.984Z,101264.75
2023-01-12T10:36:12.889Z,101277.81
2023-01-12T10:39:27.868Z,101274.56
2023-01-12T10:42:38.212Z,101273.72
2023-01-12T10:45:18.355Z,101279.16
2023-01-12T10:47:50.727Z,101288.69
2023-01-12T10:50:24.809Z,101279.94
2023-01-12T10:53:03.545Z,101283.22
2023-01-12T10:55:37.060Z,101278.88
2023-01-12T10:58:19.105Z,101274.50
2023-01-12T11:00:51.391Z,101271.50
2023-01-12T11:03:48.734Z,101275.09
2023-01-12T11:06:27.684Z,101286.75
2023-01-12T11:08:59.451Z,101278.88
2023-01-12T11:11:33.537Z,101279.09
2023-01-12T11:14:06.498Z,101283.75
2023-01-12T11:16:43.459Z,101289.47
2023-01-12T11:19:32.262Z,101285.91
2023-01-12T11:22:09.501Z,101284.53
2023-01-12T11:24:45.248Z,101291.34
2023-01-12T11:27:22.815Z,101297.88
2023-01-12T11:30:23.191Z,101299.50
2023-01-12T11:33:10.208Z,101299.44
2023-01-12T11:35:52.524Z,101300.28
2023-01-12T11:38:26.591Z,101302.75
2023-01-12T11:40:59.932Z,101300.31
2023-01-12T11:43:57.310Z,101296.22
2023-01-12T11:46:36.161Z,101292.41
2023-01-12T11:49:30.039Z,101294.34
2023-01-12T11:52:02.286Z,101293.47
2023-01-12T11:54:36.188Z,101292.41
2023-01-12T11:58:22.890Z,101291.84
2023-01-12T12:01:08.638Z,101291.84
2023-01-12T12:03:43.064Z,101280.97
2023-01-12T12:06:36.578Z,101277.69
2023-01-12T12:09:13.311Z,101274.44
2023-01-12T12:12:01.776Z,101280.38
2023-01-12T12:14:49.610Z,101269.75
2023-01-12T12:17:55.069Z,101283.09
2023-01-12T12:21:01.978Z,101279.28
2023-01-12T12:24:11.857Z,101286.59
2023-01-12T12:27:06.077Z,101286.84
2023-01-12T12:30:00.493Z,101289.00
2023-01-12T12:32:39.695Z,101286.56
2023-01-12T12:35:54.331Z,101289.00
2023-01-12T12:38:52.201Z,101276.41
2023-01-12T12:42:16.884Z,101284.91
2023-01-12T12:45:08.979Z,101284.31
2023-01-12T12:48:01.689Z,101286.78
2023-01-12T12:50:51.012Z,101283.47
2023-01-12T12:53:38.575Z,101289.72
2023-01-12T12:56:13.575Z,101294.31
2023-01-12T12:58:47.361Z,101296.50
2023-01-12T13:01:24.875Z,101294.91
2023-01-12T13:04:01.780Z,101291.31
2023-01-12T13:06:46.632Z,101292.09
2023-01-12T13:09:17.835Z,101289.38
2023-01-12T13:12:01.665Z,101288.00
2023-01-12T13:14:43.882Z,101288.50
2023-01-12T13:17:21.886Z,101281.69
2023-01-12T13:20:24.192Z,101287.09
2023-01-12T13:22:58.040Z,101282.16
2023-01-12T13:25:30.981Z,101284.66
2023-01-12T13:28:02.169Z,101281.06
2023-01-12T13:30:33.139Z,101285.41
2023-01-12T13:33:24.776Z,101283.47
2023-01-12T13:35:55.977Z,101278.59
2023-01-12T13:38:38.905Z,101288.06
2023-01-12T13:41:44.827Z,101285.81
2023-01-12T13:44:22.876Z,101292.63
2023-01-12T13:46:58.961Z,101282.31
2023-01-12T13:49:35.816Z,101281.25
2023-01-12T13:52:31.191Z,101289.75
2023-01-12T13:55:02.831Z,101284.53
2023-01-12T13:57:34.234Z,101285.34
2023-01-12T14:00:12.685Z,101287.00
2023-01-12T14:02:44.028Z,101282.66
2023-01-12T14:05:30.275Z,101288.03
2023-01-12T14:08:26.210Z,101290.50
2023-01-12T14:11:23.065Z,101289.16
2023-01-12T14:14:28.535Z,101288.91
2023-01-12T14:17:17.939Z,101285.91
2023-01-12T14:19:53.192Z,101299.50
2023-01-12T14:22:24.911Z,101295.63
2023-01-12T14:24:56.206Z,101300.19
2023-01-12T14:27:28.471Z,101295.84
2023-01-12T14:29:59.412Z,101291.44
2023-01-12T14:32:30.353Z,101295.97
2023-01-12T14:35:01.711Z,101301.66
2023-01-12T14:37:36.094Z,101308.91
2023-01-12T14:40:08.150Z,101303.47
2023-01-12T14:42:56.940Z,101305.72
2023-01-12T14:45:47.765Z,101311.28
2023-01-12T14:48:30.510Z,101305.56
2023-01-12T14:51:06.452Z,101310.69
2023-01-12T14:53:41.704Z,101309.66
2023-01-12T14:56:27.841Z,101310.16
2023-01-12T14:59:26.132Z,101314.44
2023-01-12T15:02:17.060Z,101323.53
2023-01-12T15:05:19.985Z,101316.59
2023-01-12T15:08:10.134Z,101330.16
2023-01-12T15:10:44.826Z,101332.84
2023-01-12T15:13:35.696Z,101332.84
2023-01-12T15:16:25.779Z,101335.44
2023-01-12T15:19:14.988Z,101344.47
2023-01-12T15:22:06.317Z,101346.34
2023-01-12T15:24:56.176Z,101336.28
2023-01-12T15:27:28.084Z,101341.38
2023-01-12T15:29:59.639Z,101328.91
2023-01-12T15:32:48.493Z,101339.75
2023-01-12T15:35:25.192Z,101345.03
2023-01-12T15:37:58.348Z,101344.56
2023-01-12T15:40:31.355Z,101346.69
2023-01-12T15:43:06.167Z,101345.25
2023-01-12T15:45:42.249Z,101342.03
2023-01-12T15:48:14.500Z,101341.16
2023-01-12T15:50:47.426Z,101335.59
2023-01-12T15:53:24.038Z,101340.63
2023-01-12T15:55:55.003Z,101332.81
2023-01-12T15:58:26.018Z,101333.97
2023-01-12T16:00:57.292Z,101341.50
2023-01-12T16:03:54.923Z,101349.38
2023-01-12T16:06:19.653Z,101343.88
2023-01-12T16:08:50.748Z,101342.78
2023-01-12T16:11:25.691Z,101347.91
2023-01-12T16:13:57.292Z,101348.28
2023-01-12T16:16:29.933Z,101353.34
2023-01-12T16:19:01.273Z,101360.59
2023-01-12T16:21:32.014Z,101365.00
2023-01-12T16:24:04.248Z,101368.03
2023-01-12T16:26:35.412Z,101379.81
2023-01-12T16:29:06.679Z,101391.03
2023-01-12T16:31:39.379Z,101390.06
2023-01-12T16:34:10.384Z,101397.97
2023-01-12T16:36:41.764Z,101396.38
2023-01-12T16:39:14.871Z,101394.25
2023-01-12T16:41:46.217Z,101400.34
2023-01-12T16:44:17.460Z,101393.78
2023-01-12T16:46:50.166Z,101390.81
2023-01-12T16:49:21.669Z,101393.09
2023-01-12T16:51:52.796Z,101399.50
2023-01-12T16:54:23.970Z,101393.09
2023-01-12T16:56:55.374Z,101401.00
2023-01-12T16:59:26.840Z,101399.09
2023-01-12T17:01:58.174Z,101408.72
2023-01-12T17:04:29.627Z,101408.19
2023-01-12T17:07:00.914Z,101412.53
2023-01-12T17:09:32.093Z,101410.66
2023-01-12T17:12:04.326Z,101415.19
2023-01-12T17:14:36.392Z,101415.19
2023-01-12T17:17:10.935Z,101421.50
2023-01-12T17:19:46.286Z,101423.13
2023-01-12T17:22:17.599Z,101419.03
2023-01-12T17:24:48.767Z,101430.53
2023-01-12T17:27:21.580Z,101424.78
2023-01-12T17:29:53.458Z,101416.09
2023-01-12T17:32:24.668Z,101431.13
2023-01-12T17:34:55.849Z,101428.53
2023-01-12T17:37:27.132Z,101436.22
2023-01-12T17:39:58.412Z,101430.72
2023-01-12T17:42:47.339Z,101436.22
2023-01-12T17:45:18.647Z,101439.16
2023-01-12T17:47:49.709Z,101440.78
2023-01-12T17:50:20.840Z,101437.22
2023-01-12T17:52:52.456Z,101449.66
2023-01-12T17:55:23.571Z,101437.75
2023-01-12T17:57:54.603Z,101456.13
2023-01-12T18:00:26.011Z,101460.47
2023-01-12T18:02:56.986Z,101450.38
2023-01-12T18:05:29.606Z,101460.75
2023-01-12T18:08:00.634Z,101463.91
2023-01-12T18:10:31.943Z,101462.72
2023-01-12T18:13:03.154Z,101462.56
2023-01-12T18:15:34.783Z,101466.22
2023-01-12T18:18:05.813Z,101466.28
2023-01-12T18:20:36.797Z,101465.28
2023-01-12T18:23:07.879Z,101474.91
2023-01-12T18:25:41.823Z,101473.44
2023-01-12T18:28:13.322Z,101485.09
2023-01-12T18:30:44.306Z,101488.25
2023-01-12T18:33:15.549Z,101478.94
2023-01-12T18:35:46.739Z,101490.16
2023-01-12T18:38:17.881Z,101482.53
2023-01-12T18:41:08.993Z,101487.13
2023-01-12T18:43:41.851Z,101487.72
2023-01-12T18:46:19.374Z,101501.91
2023-01-12T18:48:50.734Z,101501.94
2023-01-12T18:51:39.897Z,101505.38
2023-01-12T18:54:13.645Z,101508.00
2023-01-12T18:56:48.608Z,101511.31
2023-01-12T18:59:19.783Z,101517.16
2023-01-12T19:01:51.043Z,101515.00
2023-01-12T19:04:32.459Z,101516.09
2023-01-12T19:07:03.613Z,101527.53
2023-01-12T19:09:37.457Z,101522.53
2023-01-12T19:12:08.901Z,101534.25
2023-01-12T19:14:57.479Z,101532.28
2023-01-12T19:17:28.493Z,101535.34
2023-01-12T19:20:01.689Z,101526.25
2023-01-12T19:22:51.868Z,101536.72
2023-01-12T19:25:43.259Z,101536.50
2023-01-12T19:28:37.040Z,101533.81
2023-01-12T19:31:13.666Z,101544.75
2023-01-12T19:33:45.034Z,101543.94
2023-01-12T19:36:17.669Z,101550.22
2023-01-12T19:38:50.887Z,101535.19
2023-01-12T19:41:39.858Z,101542.84
2023-01-12T19:44:10.881Z,101547.72
2023-01-12T19:46:41.989Z,101553.22
2023-01-12T19:49:14.746Z,101542.22
2023-01-12T19:51:47.551Z,101557.53
2023-01-12T19:54:18.548Z,101551.53
2023-01-12T19:56:49.720Z,101553.94
2023-01-12T19:59:20.803Z,101559.03
2023-01-12T20:01:52.192Z,101563.69
2023-01-12T20:04:22.876Z,101562.03
2023-01-12T20:06:54.643Z,101571.91
2023-01-12T20:09:26.011Z,101569.34
2023-01-12T20:11:56.894Z,101553.94
2023-01-12T20:14:27.819Z,101566.09
2023-01-12T20:16:59.025Z,101568.47
2023-01-12T20:19:29.732Z,101564.16
2023-01-12T20:22:00.815Z,101567.19
2023-01-12T20:24:32.194Z,101572.25
2023-01-12T20:27:03.497Z,101568.97
2023-01-12T20:29:35.374Z,101573.56
2023-01-12T20:32:06.399Z,101569.91
2023-01-12T20:34:37.179Z,101564.91
2023-01-12T20:37:08.174Z,101570.31
2023-01-12T20:39:39.533Z,101566.50
2023-01-12T20:42:11.255Z,101575.09
2023-01-12T20:44:41.870Z,101576.63
2023-01-12T20:47:12.843Z,101577.53
2023-01-12T20:49:44.100Z,101574.22
2023-01-12T20:52:15.254Z,101569.56
2023-01-12T20:54:46.303Z,101571.75
2023-01-12T20:57:17.524Z,101578.41
2023-01-12T20:59:49.914Z,101573.66
2023-01-12T21:02:24.459Z,101572.41
2023-01-12T21:04:55.730Z,101573.34
2023-01-12T21:07:26.420Z,101576.38
2023-01-12T21:09:57.483Z,101568.75
2023-01-12T21:12:28.677Z,101574.72
2023-01-12T21:14:59.980Z,101572.91
2023-01-12T21:17:32.529Z,101568.91
2023-01-12T21:20:03.673Z,101571.63
2023-01-12T21:22:34.649Z,101562.78
2023-01-12T21:25:06.556Z,101567.44
2023-01-12T21:27:37.924Z,101567.00
2023-01-12T21:30:10.529Z,101560.19
2023-01-12T21:32:44.253Z,101560.00
2023-01-12T21:35:16.231Z,101566.22
2023-01-12T21:37:47.539Z,101565.63
2023-01-12T21:40:19.147Z,101556.78
2023-01-12T21:43:07.979Z,101566.06
2023-01-12T21:45:43.223Z,101562.59
2023-01-12T21:48:15.765Z,101559.44
2023-01-12T21:50:47.220Z,101544.72
2023-01-12T21:53:20.840Z,101551.34
2023-01-12T21:56:02.396Z,101552.56
2023-01-12T21:58:35.611Z,101554.84
2023-01-12T22:01:16.825Z,101542.84
2023-01-12T22:03:47.828Z,101552.50
2023-01-12T22:06:18.990Z,101549.41
2023-01-12T22:08:49.934Z,101547.69
2023-01-12T22:11:20.836Z,101546.63
2023-01-12T22:13:51.867Z,101543.66
2023-01-12T22:16:23.179Z,101547.94
2023-01-12T22:18:53.857Z,101549.25
2023-01-12T22:21:28.189Z,101549.56
2023-01-12T22:23:59.230Z,101540.53
2023-01-12T22:26:31.915Z,101550.91
2023-01-12T22:29:03.071Z,101542.69
2023-01-12T22:31:35.450Z,101543.00
2023-01-12T22:34:07.974Z,101543.09
2023-01-12T22:36:44.199Z,101549.19
2023-01-12T22:39:15.502Z,101555.59
2023-01-12T22:41:46.891Z,101544.66
2023-01-12T22:44:18.167Z,101539.31
2023-01-12T22:46:48.662Z,101541.41
2023-01-12T22:49:19.804Z,101545.81
2023-01-12T22:51:50.921Z,101539.19
2023-01-12T22:54:22.011Z,101538.72
2023-01-12T22:56:52.887Z,101538.88
2023-01-12T22:59:24.007Z,101541.38
2023-01-12T23:01:55.912Z,101547.97
2023-01-12T23:04:27.232Z,101532.28
2023-01-12T23:06:58.265Z,101545.91
2023-01-12T23:09:29.164Z,101540.72
2023-01-12T23:11:59.826Z,101531.59
2023-01-12T23:14:31.911Z,101537.50
2023-01-12T23:17:02.987Z,101534.31
2023-01-12T23:19:34.262Z,101536.50
2023-01-12T23:22:05.241Z,101535.59
2023-01-12T23:24:36.222Z,101541.25
2023-01-12T23:27:07.652Z,101541.38
2023-01-12T23:29:38.541Z,101536.66
2023-01-12T23:32:10.007Z,101543.50
2023-01-12T23:34:40.963Z,101539.50
2023-01-12T23:37:11.846Z,101537.50
2023-01-12T23:39:46.097Z,101538.88
2023-01-12T23:42:16.963Z,101535.91
2023-01-12T23:44:48.356Z,101537.31
2023-01-12T23:47:20.518Z,101531.47
2023-01-12T23:49:51.800Z,101529.72
2023-01-12T23:52:23.067Z,101520.91
2023-01-12T23:54:57.111Z,101527.38
2023-01-12T23:57:30.245Z,101528.44
